Time;durP1;ratioP1;P1;durP2;ratioP2;P2;SDS_P1;SDS_P2;PMS_P1;PMS_P2;Temp;Humidity;BMP_temperature;BMP_pressure;BME280_temperature;BME280_humidity;BME280_pressure;Samples;Min_cycle;Max_cycle;Signal;HPM_P1;HPM_P2
2023/11/02 00:01:09;;;;;;;15.10;1.40;;;;;;;;;;5100803;28;20449;-73
2023/11/02 00:03:38;;;;;;;15.57;1.38;;;;;;;;;;5096994;28;20459;-75
2023/11/02 00:06:18;;;;;;;14.80;1.30;;;;;;;;;;5097223;28;20437;-73
2023/11/02 00:08:55;;;;;;;14.52;1.23;;;;;;;;;;5102068;28;20786;-74
2023/11/02 00:11:41;;;;;;;15.77;1.50;;;;;;;;;;5097306;28;20844;-74
2023/11/02 00:14:07;;;;;;;15.85;1.38;;;;;;;;;;5106284;28;20920;-74
2023/11/02 00:16:34;;;;;;;16.15;1.50;;;;;;;;;;5097844;28;20529;-74
2023/11/02 00:19:03;;;;;;;16.40;1.30;;;;;;;;;;5091253;28;20447;-76
2023/11/02 00:21:31;;;;;;;16.90;1.30;;;;;;;;;;5101098;28;20402;-75
2023/11/02 00:23:57;;;;;;;15.50;1.55;;;;;;;;;;5098486;28;20416;-74
2023/11/02 00:26:25;;;;;;;15.35;1.30;;;;;;;;;;5101568;28;20410;-74
2023/11/02 00:28:52;;;;;;;14.98;1.52;;;;;;;;;;5079731;28;20414;-74
2023/11/02 00:31:18;;;;;;;14.02;1.10;;;;;;;;;;5101325;28;20461;-73
2023/11/02 00:33:46;;;;;;;15.25;1.30;;;;;;;;;;5081994;28;20475;-73
2023/11/02 00:36:15;;;;;;;15.90;1.40;;;;;;;;;;5081599;28;20422;-73
2023/11/02 00:38:43;;;;;;;17.48;1.45;;;;;;;;;;5084198;28;20467;-74
2023/11/02 00:41:10;;;;;;;15.30;1.30;;;;;;;;;;5105799;28;20481;-74
2023/11/02 00:43:37;;;;;;;15.80;1.20;;;;;;;;;;5094295;28;20479;-75
2023/11/02 00:46:04;;;;;;;14.70;1.30;;;;;;;;;;5097213;28;20406;-75
2023/11/02 00:48:31;;;;;;;15.90;1.20;;;;;;;;;;5095889;28;20501;-74
2023/11/02 00:51:26;;;;;;;14.45;1.25;;;;;;;;;;5089398;28;20397;-73
2023/11/02 00:53:55;;;;;;;16.67;1.30;;;;;;;;;;5106360;28;20406;-76
2023/11/02 00:56:23;;;;;;;15.20;1.40;;;;;;;;;;5084993;28;20414;-75
2023/11/02 00:58:50;;;;;;;15.50;1.50;;;;;;;;;;5096704;28;20421;-76
2023/11/02 01:01:18;;;;;;;16.10;1.70;;;;;;;;;;5098553;28;20424;-74
2023/11/02 01:03:49;;;;;;;14.50;1.10;;;;;;;;;;5095330;28;20402;-74
2023/11/02 01:06:17;;;;;;;15.75;1.50;;;;;;;;;;5105528;28;20820;-76
2023/11/02 01:08:49;;;;;;;15.35;1.60;;;;;;;;;;5097634;28;20405;-75
2023/11/02 01:11:17;;;;;;;14.00;1.20;;;;;;;;;;5095186;28;20408;-76
2023/11/02 01:13:43;;;;;;;14.07;1.17;;;;;;;;;;5098532;28;20459;-75
2023/11/02 01:16:10;;;;;;;15.33;1.30;;;;;;;;;;5103990;28;20405;-75
2023/11/02 01:18:40;;;;;;;15.60;1.45;;;;;;;;;;5102913;28;20859;-75
2023/11/02 01:21:07;;;;;;;17.05;1.85;;;;;;;;;;5101569;28;20404;-74
2023/11/02 01:23:35;;;;;;;14.70;1.30;;;;;;;;;;5102003;28;20420;-75
2023/11/02 01:26:06;;;;;;;14.98;1.35;;;;;;;;;;5107753;28;20420;-75
2023/11/02 01:28:58;;;;;;;15.20;1.20;;;;;;;;;;5086487;28;20408;-77
2023/11/02 01:31:26;;;;;;;15.68;1.50;;;;;;;;;;5090580;28;20412;-74
2023/11/02 01:33:54;;;;;;;16.50;1.40;;;;;;;;;;5100940;28;20906;-75
2023/11/02 01:36:26;;;;;;;14.90;1.50;;;;;;;;;;5102630;28;20997;-74
2023/11/02 01:38:57;;;;;;;14.60;1.30;;;;;;;;;;5099047;28;20431;-76
2023/11/02 01:41:28;;;;;;;14.20;1.20;;;;;;;;;;5092010;28;20418;-75
2023/11/02 01:43:59;;;;;;;15.95;1.40;;;;;;;;;;5106631;28;20770;-75
2023/11/02 01:46:31;;;;;;;16.38;1.45;;;;;;;;;;5100850;28;20466;-76
2023/11/02 01:49:01;;;;;;;15.32;1.30;;;;;;;;;;5097552;28;20546;-75
2023/11/02 01:51:33;;;;;;;15.85;1.30;;;;;;;;;;5100191;28;20408;-75
2023/11/02 01:54:04;;;;;;;15.17;1.40;;;;;;;;;;5106569;28;20889;-75
2023/11/02 01:56:37;;;;;;;18.00;1.40;;;;;;;;;;5102437;28;20469;-75
2023/11/02 01:59:09;;;;;;;15.70;1.20;;;;;;;;;;5091259;28;20485;-76
2023/11/02 02:01:39;;;;;;;14.85;1.25;;;;;;;;;;5097639;28;20405;-76
2023/11/02 02:04:09;;;;;;;17.10;2.00;;;;;;;;;;5080003;28;20433;-77
2023/11/02 02:06:41;;;;;;;14.80;1.33;;;;;;;;;;5100931;28;20410;-75
2023/11/02 02:09:15;;;;;;;15.20;1.60;;;;;;;;;;5099574;28;20479;-75
2023/11/02 02:11:46;;;;;;;17.80;1.30;;;;;;;;;;5080200;28;20409;-74
2023/11/02 02:14:19;;;;;;;15.07;1.40;;;;;;;;;;5082961;28;20970;-75
2023/11/02 02:16:51;;;;;;;16.80;1.60;;;;;;;;;;5101864;28;20421;-75
2023/11/02 02:19:41;;;;;;;14.82;1.23;;;;;;;;;;5098512;28;20418;-74
2023/11/02 02:22:10;;;;;;;15.50;1.40;;;;;;;;;;5107396;28;20928;-75
2023/11/02 02:24:43;;;;;;;15.30;1.50;;;;;;;;;;5104864;28;20410;-74
2023/11/02 02:27:26;;;;;;;17.85;1.50;;;;;;;;;;5093133;28;20785;-72
2023/11/02 02:30:05;;;;;;;16.30;1.70;;;;;;;;;;5096156;27;20465;-74
2023/11/02 02:32:46;;;;;;;14.65;1.40;;;;;;;;;;5102423;28;20760;-75
2023/11/02 02:35:16;;;;;;;15.00;1.60;;;;;;;;;;5110012;28;20448;-76
2023/11/02 02:37:47;;;;;;;17.20;1.70;;;;;;;;;;5090102;28;20906;-75
2023/11/02 02:40:17;;;;;;;17.70;1.60;;;;;;;;;;5086148;28;20538;-74
2023/11/02 02:42:45;;;;;;;14.40;1.40;;;;;;;;;;5105255;28;20440;-75
2023/11/02 02:45:12;;;;;;;17.40;2.17;;;;;;;;;;5090953;28;20414;-75
2023/11/02 02:47:40;;;;;;;14.95;1.40;;;;;;;;;;5106250;28;20455;-75
2023/11/02 02:50:08;;;;;;;14.40;1.40;;;;;;;;;;5102056;27;20416;-75
2023/11/02 02:52:38;;;;;;;15.93;1.25;;;;;;;;;;5084231;28;20418;-74
2023/11/02 02:55:05;;;;;;;14.90;1.40;;;;;;;;;;5091897;28;20418;-75
2023/11/02 02:57:33;;;;;;;16.30;2.20;;;;;;;;;;5090279;28;21075;-75
2023/11/02 03:00:01;;;;;;;19.70;2.20;;;;;;;;;;5102214;28;20414;-75
2023/11/02 03:02:31;;;;;;;17.45;1.58;;;;;;;;;;5099426;28;20515;-75
2023/11/02 03:04:58;;;;;;;16.08;1.85;;;;;;;;;;5080950;28;20726;-75
2023/11/02 03:07:25;;;;;;;18.60;2.00;;;;;;;;;;5098550;28;20793;-75
2023/11/02 03:09:56;;;;;;;16.20;1.70;;;;;;;;;;5098834;28;20503;-77
2023/11/02 03:12:25;;;;;;;14.80;1.50;;;;;;;;;;5105331;28;20416;-75
2023/11/02 03:14:53;;;;;;;14.70;1.50;;;;;;;;;;5082419;28;20918;-76
2023/11/02 03:17:24;;;;;;;14.95;1.48;;;;;;;;;;5101160;28;20930;-77
2023/11/02 03:19:50;;;;;;;14.80;1.30;;;;;;;;;;5097817;28;20422;-74
2023/11/02 03:22:18;;;;;;;17.08;2.47;;;;;;;;;;5097956;28;20409;-75
2023/11/02 03:24:58;;;;;;;15.65;1.30;;;;;;;;;;5099716;28;20922;-75
2023/11/02 03:27:30;;;;;;;14.60;1.30;;;;;;;;;;5106871;28;20400;-77
2023/11/02 03:30:00;;;;;;;15.35;1.80;;;;;;;;;;5100503;28;20410;-75
2023/11/02 03:32:29;;;;;;;14.70;1.30;;;;;;;;;;5099177;28;20437;-75
2023/11/02 03:35:02;;;;;;;15.00;1.30;;;;;;;;;;5085184;28;20409;-75
2023/11/02 03:37:34;;;;;;;16.90;1.35;;;;;;;;;;5095218;28;20421;-75
2023/11/02 03:40:11;;;;;;;17.00;1.50;;;;;;;;;;5102003;28;20508;-77
2023/11/02 03:42:44;;;;;;;16.30;1.60;;;;;;;;;;5095716;28;20428;-75
2023/11/02 03:45:17;;;;;;;15.10;1.48;;;;;;;;;;5097740;28;20421;-77
2023/11/02 03:47:55;;;;;;;17.30;1.70;;;;;;;;;;5099455;28;20419;-75
2023/11/02 03:50:28;;;;;;;14.90;1.20;;;;;;;;;;5101748;28;20398;-75
2023/11/02 03:53:00;;;;;;;15.13;1.50;;;;;;;;;;5097465;28;20390;-75
2023/11/02 03:55:34;;;;;;;15.65;1.60;;;;;;;;;;5097938;28;20811;-76
2023/11/02 03:58:16;;;;;;;15.27;1.43;;;;;;;;;;5093058;28;20416;-77
2023/11/02 04:00:47;;;;;;;15.60;1.27;;;;;;;;;;5106116;28;20487;-76
2023/11/02 04:03:15;;;;;;;16.60;1.70;;;;;;;;;;5095262;28;20408;-76
2023/11/02 04:05:43;;;;;;;14.75;1.30;;;;;;;;;;5096402;28;20408;-77
2023/11/02 04:08:14;;;;;;;16.40;1.40;;;;;;;;;;5099191;28;20408;-76
2023/11/02 04:10:44;;;;;;;14.80;1.20;;;;;;;;;;5087551;28;20437;-76
2023/11/02 04:13:20;;;;;;;15.20;1.40;;;;;;;;;;5098798;28;20834;-77
2023/11/02 04:15:50;;;;;;;14.82;1.50;;;;;;;;;;5099219;28;20394;-76
2023/11/02 04:18:17;;;;;;;14.85;1.40;;;;;;;;;;5117600;28;20412;-75
2023/11/02 04:20:45;;;;;;;15.23;1.30;;;;;;;;;;5101623;28;20432;-74
2023/11/02 04:23:13;;;;;;;15.25;1.40;;;;;;;;;;5088447;28;20433;-74
2023/11/02 04:25:40;;;;;;;13.82;1.10;;;;;;;;;;5096678;28;20494;-75
2023/11/02 04:28:06;;;;;;;15.38;1.60;;;;;;;;;;5097744;28;20499;-75
2023/11/02 04:30:34;;;;;;;15.10;1.40;;;;;;;;;;5101182;28;20918;-75
2023/11/02 04:33:01;;;;;;;17.75;1.40;;;;;;;;;;5095334;28;20429;-74
2023/11/02 04:35:28;;;;;;;14.50;1.20;;;;;;;;;;5097031;28;20416;-74
2023/11/02 04:38:04;;;;;;;15.15;1.45;;;;;;;;;;5084648;28;20456;-74
2023/11/02 04:40:32;;;;;;;14.10;1.20;;;;;;;;;;5094858;28;21036;-74
2023/11/02 04:42:59;;;;;;;14.30;1.23;;;;;;;;;;5098001;28;20393;-74
2023/11/02 04:45:26;;;;;;;16.88;1.30;;;;;;;;;;5101148;28;20491;-73
2023/11/02 04:47:54;;;;;;;15.00;1.40;;;;;;;;;;5101192;28;20482;-75
2023/11/02 04:50:21;;;;;;;16.17;1.15;;;;;;;;;;5106047;28;20416;-76
2023/11/02 04:52:49;;;;;;;17.10;1.38;;;;;;;;;;5102031;28;20404;-77
2023/11/02 04:55:15;;;;;;;17.88;1.42;;;;;;;;;;5108903;28;20923;-74
2023/11/02 04:57:42;;;;;;;15.45;1.50;;;;;;;;;;5083712;28;20828;-76
2023/11/02 05:00:08;;;;;;;;;;;;;;;;;;5102167;28;20423;-74
2023/11/02 05:02:35;;;;;;;15.40;1.90;;;;;;;;;;5104291;28;20398;-75
2023/11/02 05:05:03;;;;;;;16.25;1.30;;;;;;;;;;5087533;28;20433;-73
2023/11/02 05:07:30;;;;;;;15.60;1.40;;;;;;;;;;5093547;28;20490;-77
2023/11/02 05:09:57;;;;;;;15.77;1.30;;;;;;;;;;5101767;28;20408;-74
2023/11/02 05:12:25;;;;;;;17.65;1.50;;;;;;;;;;5101688;28;20882;-75
2023/11/02 05:14:52;;;;;;;16.40;1.35;;;;;;;;;;5103421;28;20404;-75
2023/11/02 05:17:18;;;;;;;14.85;1.20;;;;;;;;;;5102770;28;20461;-76
2023/11/02 05:19:45;;;;;;;15.10;1.38;;;;;;;;;;5099985;28;20413;-76
2023/11/02 05:22:13;;;;;;;16.50;1.10;;;;;;;;;;5083684;28;20952;-75
2023/11/02 05:24:40;;;;;;;17.30;1.60;;;;;;;;;;5099397;28;20398;-76
2023/11/02 05:27:07;;;;;;;15.13;1.20;;;;;;;;;;5093789;28;20425;-77
2023/11/02 05:29:33;;;;;;;16.10;1.80;;;;;;;;;;5100732;28;20453;-75
2023/11/02 05:32:00;;;;;;;15.60;1.30;;;;;;;;;;5102507;28;20397;-75
2023/11/02 05:34:26;;;;;;;15.80;1.20;;;;;;;;;;5104275;28;20457;-76
2023/11/02 05:36:53;;;;;;;15.00;1.20;;;;;;;;;;5103043;28;20431;-75
2023/11/02 05:39:21;;;;;;;14.75;1.40;;;;;;;;;;5101651;28;20412;-77
2023/11/02 05:41:48;;;;;;;16.10;1.40;;;;;;;;;;5092874;28;20444;-75
2023/11/02 05:44:15;;;;;;;15.32;1.20;;;;;;;;;;5105178;28;20402;-76
2023/11/02 05:46:42;;;;;;;15.00;1.13;;;;;;;;;;5102701;28;20422;-76
2023/11/02 05:49:08;;;;;;;14.00;1.10;;;;;;;;;;5102121;28;20429;-76
2023/11/02 05:51:35;;;;;;;15.07;1.30;;;;;;;;;;5088217;28;20832;-78
2023/11/02 05:54:02;;;;;;;13.93;1.30;;;;;;;;;;5082733;28;20462;-73
2023/11/02 05:56:31;;;;;;;13.88;1.20;;;;;;;;;;5100261;28;20857;-74
2023/11/02 05:58:58;;;;;;;14.23;1.10;;;;;;;;;;5105311;28;20426;-74
2023/11/02 06:01:24;;;;;;;14.32;1.20;;;;;;;;;;5100916;28;20908;-76
2023/11/02 06:03:51;;;;;;;14.20;1.27;;;;;;;;;;5106305;28;20749;-73
2023/11/02 06:06:18;;;;;;;15.60;1.15;;;;;;;;;;5090860;28;20410;-76
2023/11/02 06:08:45;;;;;;;14.07;1.20;;;;;;;;;;5099829;28;20432;-78
2023/11/02 06:11:11;;;;;;;14.43;1.33;;;;;;;;;;5102611;28;20471;-73
2023/11/02 06:13:42;;;;;;;16.50;1.70;;;;;;;;;;5099983;28;20413;-76
2023/11/02 06:16:09;;;;;;;15.90;2.40;;;;;;;;;;5104661;28;20519;-77
2023/11/02 06:18:35;;;;;;;18.73;3.28;;;;;;;;;;5107739;28;20400;-77
2023/11/02 06:21:02;;;;;;;15.55;1.80;;;;;;;;;;5104174;28;20421;-77
2023/11/02 06:23:29;;;;;;;18.17;2.88;;;;;;;;;;5097696;28;20405;-76
2023/11/02 06:25:56;;;;;;;16.10;1.40;;;;;;;;;;5084761;28;20417;-78
2023/11/02 06:28:23;;;;;;;15.98;1.40;;;;;;;;;;5093813;28;20783;-76
2023/11/02 06:30:51;;;;;;;15.00;1.40;;;;;;;;;;5101118;28;20413;-76
2023/11/02 06:33:23;;;;;;;14.60;1.30;;;;;;;;;;5098610;28;20404;-76
2023/11/02 06:35:49;;;;;;;17.08;2.20;;;;;;;;;;5108636;28;20398;-77
2023/11/02 06:38:17;;;;;;;17.92;2.40;;;;;;;;;;5106930;28;20425;-76
2023/11/02 06:40:44;;;;;;;14.40;1.40;;;;;;;;;;5108434;28;20824;-77
2023/11/02 06:43:11;;;;;;;14.80;1.40;;;;;;;;;;5083916;28;20406;-76
2023/11/02 06:45:37;;;;;;;15.00;1.20;;;;;;;;;;5100656;28;20520;-76
2023/11/02 06:48:06;;;;;;;14.32;1.10;;;;;;;;;;5087205;28;20507;-78
2023/11/02 06:50:32;;;;;;;14.90;1.40;;;;;;;;;;5099034;28;20804;-75
2023/11/02 06:52:59;;;;;;;15.60;1.20;;;;;;;;;;5099788;28;20926;-76
2023/11/02 06:55:25;;;;;;;15.75;1.20;;;;;;;;;;5098440;28;20452;-75
2023/11/02 06:57:52;;;;;;;15.82;1.35;;;;;;;;;;5101451;28;20406;-76
2023/11/02 07:00:19;;;;;;;17.08;1.23;;;;;;;;;;5101995;28;20833;-75
2023/11/02 07:02:45;;;;;;;15.32;1.15;;;;;;;;;;5083307;28;20424;-76
2023/11/02 07:05:13;;;;;;;14.02;1.10;;;;;;;;;;5102090;28;20793;-75
2023/11/02 07:07:42;;;;;;;13.98;1.08;;;;;;;;;;5098541;28;20484;-76
2023/11/02 07:10:09;;;;;;;15.77;1.10;;;;;;;;;;5102304;28;20407;-76
2023/11/02 07:12:39;;;;;;;14.20;1.20;;;;;;;;;;5089381;28;20417;-75
2023/11/02 07:15:06;;;;;;;17.48;1.30;;;;;;;;;;5103649;27;20416;-76
2023/11/02 07:17:33;;;;;;;15.30;1.30;;;;;;;;;;5095942;28;20402;-74
2023/11/02 07:19:59;;;;;;;15.00;1.90;;;;;;;;;;5081690;28;20475;-74
2023/11/02 07:22:27;;;;;;;14.20;1.20;;;;;;;;;;5097290;28;20503;-77
2023/11/02 07:24:54;;;;;;;15.77;1.30;;;;;;;;;;5083681;28;20501;-78
2023/11/02 07:27:20;;;;;;;14.13;1.10;;;;;;;;;;5097340;28;20422;-77
2023/11/02 07:29:47;;;;;;;15.20;1.20;;;;;;;;;;5100188;28;20905;-76
2023/11/02 07:32:17;;;;;;;15.80;1.50;;;;;;;;;;5096902;28;20410;-78
2023/11/02 07:34:43;;;;;;;14.10;1.15;;;;;;;;;;5098275;28;20430;-77
2023/11/02 07:37:11;;;;;;;15.10;1.30;;;;;;;;;;5100597;28;20422;-80
2023/11/02 07:39:39;;;;;;;14.77;1.20;;;;;;;;;;5098395;28;20412;-77
2023/11/02 07:42:06;;;;;;;15.50;1.20;;;;;;;;;;5099275;28;20423;-82
2023/11/02 07:44:32;;;;;;;14.50;1.20;;;;;;;;;;5106281;28;20412;-79
2023/11/02 07:47:00;;;;;;;14.20;1.17;;;;;;;;;;5090568;28;20406;-78
2023/11/02 07:49:26;;;;;;;15.20;1.30;;;;;;;;;;5098337;28;20856;-80
2023/11/02 07:51:53;;;;;;;14.90;1.20;;;;;;;;;;5098578;28;20405;-77
2023/11/02 07:54:19;;;;;;;14.10;1.10;;;;;;;;;;5097663;28;20840;-78
2023/11/02 07:56:47;;;;;;;14.40;1.20;;;;;;;;;;5103546;28;20458;-79
2023/11/02 07:59:15;;;;;;;14.18;1.10;;;;;;;;;;5104472;28;20505;-80
2023/11/02 08:01:42;;;;;;;14.90;1.40;;;;;;;;;;5097831;28;20442;-76
2023/11/02 08:04:09;;;;;;;15.33;1.23;;;;;;;;;;5106310;28;20466;-80
2023/11/02 08:06:35;;;;;;;17.50;1.40;;;;;;;;;;5097101;28;20423;-79
2023/11/02 08:09:02;;;;;;;15.27;1.75;;;;;;;;;;5101001;28;20779;-79
2023/11/02 08:11:36;;;;;;;14.55;1.20;;;;;;;;;;5098292;28;20819;-79
2023/11/02 08:14:04;;;;;;;14.25;1.35;;;;;;;;;;5085194;28;20510;-79
2023/11/02 08:16:31;;;;;;;14.10;1.17;;;;;;;;;;5091394;28;20905;-79
2023/11/02 08:18:57;;;;;;;15.60;1.20;;;;;;;;;;5099409;28;20402;-77
2023/11/02 08:21:24;;;;;;;14.40;1.20;;;;;;;;;;5101543;28;20470;-80
2023/11/02 08:23:51;;;;;;;14.70;1.00;;;;;;;;;;5101269;28;20398;-80
2023/11/02 08:26:20;;;;;;;14.43;1.35;;;;;;;;;;5103444;28;20582;-78
2023/11/02 08:28:50;;;;;;;14.70;1.13;;;;;;;;;;5107124;28;20438;-79
2023/11/02 08:31:22;;;;;;;14.20;1.20;;;;;;;;;;5103256;28;20408;-79
2023/11/02 08:33:49;;;;;;;13.90;1.10;;;;;;;;;;5109593;28;20961;-79
2023/11/02 08:36:16;;;;;;;14.07;1.00;;;;;;;;;;5103718;28;20870;-77
2023/11/02 08:38:43;;;;;;;15.40;1.40;;;;;;;;;;5105581;28;20410;-77
2023/11/02 08:41:16;;;;;;;13.90;1.10;;;;;;;;;;5102204;28;20417;-76
2023/11/02 08:43:46;;;;;;;15.50;1.40;;;;;;;;;;5094414;28;20412;-76
2023/11/02 08:46:16;;;;;;;14.15;1.23;;;;;;;;;;5099669;28;20402;-78
2023/11/02 08:48:44;;;;;;;14.60;1.00;;;;;;;;;;5102159;28;20504;-78
2023/11/02 08:51:13;;;;;;;16.73;1.38;;;;;;;;;;5092778;28;20408;-76
2023/11/02 08:53:39;;;;;;;16.35;1.35;;;;;;;;;;5098028;28;20414;-78
2023/11/02 08:56:09;;;;;;;14.98;1.40;;;;;;;;;;5102006;28;20410;-76
2023/11/02 08:58:40;;;;;;;13.80;1.10;;;;;;;;;;5101738;28;20413;-76
2023/11/02 09:01:08;;;;;;;15.48;1.42;;;;;;;;;;5092090;28;20426;-76
2023/11/02 09:03:34;;;;;;;14.20;1.20;;;;;;;;;;5102560;28;20505;-76
2023/11/02 09:06:04;;;;;;;14.18;1.50;;;;;;;;;;5105792;28;20438;-77
2023/11/02 09:08:32;;;;;;;14.90;1.60;;;;;;;;;;5086813;28;20480;-76
2023/11/02 09:10:59;;;;;;;14.30;1.10;;;;;;;;;;5094442;28;20536;-78
2023/11/02 09:13:27;;;;;;;15.07;1.20;;;;;;;;;;5104855;28;20766;-78
2023/11/02 09:15:54;;;;;;;16.23;1.40;;;;;;;;;;5097934;28;20456;-74
2023/11/02 09:18:21;;;;;;;15.00;1.25;;;;;;;;;;5100818;28;20410;-76
2023/11/02 09:20:51;;;;;;;15.17;1.20;;;;;;;;;;5084088;28;20748;-78
2023/11/02 09:23:19;;;;;;;16.10;1.35;;;;;;;;;;5103187;28;20420;-75
2023/11/02 09:25:47;;;;;;;14.30;1.20;;;;;;;;;;5091034;28;20727;-76
2023/11/02 09:28:13;;;;;;;14.65;1.20;;;;;;;;;;5081666;28;20401;-76
2023/11/02 09:30:41;;;;;;;14.90;1.20;;;;;;;;;;5087880;28;20801;-75
2023/11/02 09:33:08;;;;;;;14.82;1.38;;;;;;;;;;5105354;28;20701;-76
2023/11/02 09:35:35;;;;;;;14.70;1.20;;;;;;;;;;5101101;28;20412;-78
2023/11/02 09:38:01;;;;;;;16.38;1.30;;;;;;;;;;5102833;28;20412;-79
2023/11/02 09:40:29;;;;;;;15.18;1.50;;;;;;;;;;5107794;28;20428;-76
2023/11/02 09:43:01;;;;;;;15.52;1.50;;;;;;;;;;5104026;28;20420;-76
2023/11/02 09:45:28;;;;;;;14.90;1.00;;;;;;;;;;5102055;28;20402;-76
2023/11/02 09:47:56;;;;;;;16.50;1.30;;;;;;;;;;5100952;28;20423;-77
2023/11/02 09:50:24;;;;;;;14.40;1.10;;;;;;;;;;5103877;28;20405;-77
2023/11/02 09:52:50;;;;;;;;;;;;;;;;;;5104200;28;20407;-77
2023/11/02 09:55:17;;;;;;;16.43;1.30;;;;;;;;;;5095859;28;20911;-76
2023/11/02 09:57:45;;;;;;;14.90;1.40;;;;;;;;;;5099714;28;20434;-77
2023/11/02 10:00:12;;;;;;;19.60;1.40;;;;;;;;;;5086296;28;20437;-77
2023/11/02 10:02:40;;;;;;;14.15;1.13;;;;;;;;;;5098536;28;20471;-75
2023/11/02 10:05:08;;;;;;;16.70;1.23;;;;;;;;;;5107713;28;20447;-76
2023/11/02 10:07:35;;;;;;;16.80;1.40;;;;;;;;;;5097580;28;20405;-77
2023/11/02 10:10:02;;;;;;;17.98;1.60;;;;;;;;;;5091321;28;20408;-80
2023/11/02 10:12:32;;;;;;;17.40;1.20;;;;;;;;;;5108132;28;20443;-76
2023/11/02 10:15:00;;;;;;;16.60;1.50;;;;;;;;;;5107460;28;20408;-76
2023/11/02 10:17:32;;;;;;;18.20;1.42;;;;;;;;;;5104384;28;20817;-80
2023/11/02 10:20:00;;;;;;;16.70;1.50;;;;;;;;;;5096319;28;20406;-77
2023/11/02 10:22:27;;;;;;;17.50;1.40;;;;;;;;;;5100225;28;20421;-74
2023/11/02 10:24:53;;;;;;;16.20;1.20;;;;;;;;;;5101855;28;20435;-76
2023/11/02 10:27:20;;;;;;;14.80;1.70;;;;;;;;;;5097757;28;20397;-75
2023/11/02 10:29:47;;;;;;;16.30;1.35;;;;;;;;;;5105764;28;20396;-75
2023/11/02 10:32:16;;;;;;;15.23;1.20;;;;;;;;;;5101134;28;20417;-75
2023/11/02 10:34:45;;;;;;;18.08;1.23;;;;;;;;;;5093710;28;20711;-77
2023/11/02 10:37:12;;;;;;;15.60;1.30;;;;;;;;;;5098177;28;21215;-75
2023/11/02 10:39:39;;;;;;;14.88;1.30;;;;;;;;;;5101671;28;20411;-79
2023/11/02 10:42:06;;;;;;;19.20;2.10;;;;;;;;;;5101221;28;20429;-78
2023/11/02 10:44:36;;;;;;;14.30;1.70;;;;;;;;;;5096742;28;20439;-77
2023/11/02 10:47:03;;;;;;;16.08;1.40;;;;;;;;;;5103646;28;20409;-76
2023/11/02 10:49:32;;;;;;;16.00;2.00;;;;;;;;;;5101526;28;20923;-78
2023/11/02 10:51:59;;;;;;;15.30;1.45;;;;;;;;;;5101342;28;20424;-76
2023/11/02 10:54:33;;;;;;;15.30;1.85;;;;;;;;;;5090921;28;21051;-77
2023/11/02 10:57:03;;;;;;;15.90;1.20;;;;;;;;;;5101298;28;20408;-76
2023/11/02 10:59:32;;;;;;;15.27;2.00;;;;;;;;;;5102516;28;20403;-77
2023/11/02 11:01:59;;;;;;;15.73;1.40;;;;;;;;;;5098045;28;20425;-79
2023/11/02 11:04:26;;;;;;;15.02;1.45;;;;;;;;;;5091582;28;20413;-75
2023/11/02 11:06:55;;;;;;;17.80;1.70;;;;;;;;;;5091143;28;20419;-74
2023/11/02 11:09:23;;;;;;;15.55;1.30;;;;;;;;;;5099695;28;20402;-74
2023/11/02 11:11:50;;;;;;;17.77;1.40;;;;;;;;;;5096908;28;20504;-77
2023/11/02 11:14:17;;;;;;;16.13;1.60;;;;;;;;;;5099085;28;20406;-74
2023/11/02 11:16:44;;;;;;;19.80;2.30;;;;;;;;;;5098102;28;20423;-73
2023/11/02 11:19:18;;;;;;;16.50;1.70;;;;;;;;;;5107643;28;20433;-80
2023/11/02 11:21:48;;;;;;;16.58;2.25;;;;;;;;;;5102143;28;20834;-83
2023/11/02 11:24:21;;;;;;;17.73;1.90;;;;;;;;;;5103093;28;20471;-81
2023/11/02 11:26:50;;;;;;;17.90;1.95;;;;;;;;;;5106578;28;20443;-81
2023/11/02 11:29:36;;;;;;;16.85;1.50;;;;;;;;;;5101609;28;20406;-83
2023/11/02 11:32:29;;;;;;;15.13;1.27;;;;;;;;;;5107635;28;20412;-80
2023/11/02 11:35:13;;;;;;;17.60;1.67;;;;;;;;;;5090268;28;20937;-84
2023/11/02 11:40:40;;;;;;;17.37;1.40;;;;;;;;;;5098881;28;20748;-78
2023/11/02 11:45:48;;;;;;;15.05;1.27;;;;;;;;;;5101408;28;20408;-79
2023/11/02 11:48:34;;;;;;;20.00;1.60;;;;;;;;;;5090845;28;20400;-81
2023/11/02 11:51:19;;;;;;;15.55;1.52;;;;;;;;;;5098257;28;20843;-79
2023/11/02 11:54:06;;;;;;;18.27;1.50;;;;;;;;;;5097107;28;20455;-80
2023/11/02 11:56:40;;;;;;;16.85;1.60;;;;;;;;;;5091870;28;20406;-83
2023/11/02 11:59:08;;;;;;;15.50;1.30;;;;;;;;;;5096412;28;20554;-82
2023/11/02 12:01:36;;;;;;;18.50;1.40;;;;;;;;;;5108784;28;20517;-78
2023/11/02 12:04:08;;;;;;;18.00;1.30;;;;;;;;;;5102968;28;20749;-80
2023/11/02 12:06:43;;;;;;;17.53;1.87;;;;;;;;;;5099849;28;20425;-80
2023/11/02 12:09:13;;;;;;;15.02;1.40;;;;;;;;;;5092496;28;20500;-80
2023/11/02 12:11:42;;;;;;;15.40;1.60;;;;;;;;;;5099878;28;20400;-79
2023/11/02 12:14:13;;;;;;;19.30;1.60;;;;;;;;;;5101940;28;20457;-78
2023/11/02 12:16:44;;;;;;;16.95;1.58;;;;;;;;;;5095278;28;20426;-78
2023/11/02 12:19:11;;;;;;;16.13;1.60;;;;;;;;;;5097581;28;20466;-79
2023/11/02 12:21:40;;;;;;;17.70;1.40;;;;;;;;;;5097700;28;20458;-81
2023/11/02 12:24:07;;;;;;;;;;;;;;;;;;5080885;28;20429;-78
2023/11/02 12:26:36;;;;;;;;;;;;;;;;;;5098181;28;19920;-78
2023/11/02 12:29:03;;;;;;;;;;;;;;;;;;5107964;28;19973;-80
2023/11/02 12:31:30;;;;;;;;;;;;;;;;;;5097736;28;19926;-77
2023/11/02 12:33:59;;;;;;;;;;;;;;;;;;5109851;28;20809;-81
2023/11/02 12:36:28;;;;;;;;;;;;;;;;;;5101361;28;19920;-78
2023/11/02 12:38:55;;;;;;;;;;;;;;;;;;5098878;28;20380;-79
2023/11/02 12:41:23;;;;;;;;;;;;;;;;;;5089883;28;20240;-76
2023/11/02 12:43:49;;;;;;;;;;;;;;;;;;5091712;28;19936;-79
2023/11/02 12:46:16;;;;;;;;;;;;;;;;;;5081076;28;19977;-78
2023/11/02 12:48:43;;;;;;;;;;;;;;;;;;5105671;28;19942;-78
2023/11/02 12:51:09;;;;;;;;;;;;;;;;;;5104664;28;19956;-79
2023/11/02 12:53:38;;;;;;;;;;;;;;;;;;5102258;28;19920;-79
2023/11/02 12:56:04;;;;;;;;;;;;;;;;;;5102242;28;19927;-76
2023/11/02 12:58:33;;;;;;;;;;;;;;;;;;5104493;28;20005;-77
2023/11/02 13:01:00;;;;;;;;;;;;;;;;;;5099086;28;19924;-79
2023/11/02 13:03:27;;;;;;;;;;;;;;;;;;5104241;28;19946;-77
2023/11/02 13:05:55;;;;;;;;;;;;;;;;;;5103437;28;19959;-77
2023/11/02 13:08:21;;;;;;;;;;;;;;;;;;5108187;28;19923;-78
2023/11/02 13:10:47;;;;;;;;;;;;;;;;;;5104902;28;19923;-78
2023/11/02 13:13:14;;;;;;;;;;;;;;;;;;5103452;28;19959;-76
2023/11/02 13:15:44;;;;;;;;;;;;;;;;;;5104713;28;19919;-76
2023/11/02 13:18:10;;;;;;;;;;;;;;;;;;5095837;28;20326;-76
2023/11/02 13:20:37;;;;;;;;;;;;;;;;;;5104448;28;19928;-79
2023/11/02 13:23:07;;;;;;;;;;;;;;;;;;5103749;28;20045;-79
2023/11/02 13:25:35;;;;;;;;;;;;;;;;;;5105357;28;19989;-77
2023/11/02 13:28:06;;;;;;;;;;;;;;;;;;5107548;28;19971;-78
2023/11/02 13:30:34;;;;;;;;;;;;;;;;;;5113827;28;20368;-76
2023/11/02 13:33:10;;;;;;;;;;;;;;;;;;5090839;28;19924;-78
2023/11/02 13:35:36;;;;;;;;;;;;;;;;;;5102176;28;19927;-79
2023/11/02 13:38:04;;;;;;;;;;;;;;;;;;5103976;28;19920;-79
2023/11/02 13:40:31;;;;;;;;;;;;;;;;;;5112982;28;19946;-77
2023/11/02 13:43:01;;;;;;;;;;;;;;;;;;5108290;28;19950;-77
2023/11/02 13:45:29;;;;;;;;;;;;;;;;;;5107843;28;19930;-81
2023/11/02 13:47:57;;;;;;;;;;;;;;;;;;5105589;28;19935;-77
2023/11/02 13:50:32;;;;;;;;;;;;;;;;;;5111583;28;19923;-77
2023/11/02 13:52:58;;;;;;;;;;;;;;;;;;5090601;28;20383;-79
2023/11/02 13:55:25;;;;;;;;;;;;;;;;;;5099335;28;20389;-81
2023/11/02 13:57:52;;;;;;;;;;;;;;;;;;5102071;28;20002;-79
2023/11/02 14:00:20;;;;;;;;;;;;;;;;;;5106713;28;19955;-77
2023/11/02 14:02:47;;;;;;;;;;;;;;;;;;5102194;28;19929;-81
2023/11/02 14:05:14;;;;;;;;;;;;;;;;;;5102131;28;19932;-80
2023/11/02 14:07:40;;;;;;;;;;;;;;;;;;5105770;28;19985;-78
2023/11/02 14:10:07;;;;;;;;;;;;;;;;;;5106211;28;19924;-78
2023/11/02 14:12:33;;;;;;;;;;;;;;;;;;5104113;28;19926;-80
2023/11/02 14:15:00;;;;;;;;;;;;;;;;;;5111013;28;19989;-79
2023/11/02 14:17:27;;;;;;;;;;;;;;;;;;5102153;28;20022;-80
2023/11/02 14:20:01;;;;;;;;;;;;;;;;;;5107756;28;20364;-80
2023/11/02 14:22:28;;;;;;;;;;;;;;;;;;5095447;28;19919;-81
2023/11/02 14:24:55;;;;;;;;;;;;;;;;;;5090044;28;19923;-79
2023/11/02 14:27:25;;;;;;;;;;;;;;;;;;5101521;28;19955;-78
2023/11/02 14:29:55;;;;;;;;;;;;;;;;;;5099862;27;20348;-79
2023/11/02 14:32:22;;;;;;;;;;;;;;;;;;5102749;28;19920;-76
2023/11/02 14:34:48;;;;;;;;;;;;;;;;;;5105056;28;19973;-77
2023/11/02 14:37:15;;;;;;;;;;;;;;;;;;5097587;28;20380;-80
2023/11/02 14:39:44;;;;;;;;;;;;;;;;;;5101627;28;19955;-77
2023/11/02 14:42:12;;;;;;;;;;;;;;;;;;5101065;28;19920;-79
2023/11/02 14:44:49;;;;;;;;;;;;;;;;;;5098929;28;20382;-76
2023/11/02 14:47:18;;;;;;;;;;;;;;;;;;5094056;28;19926;-79
2023/11/02 14:49:45;;;;;;;;;;;;;;;;;;5101522;28;19919;-79
2023/11/02 14:52:12;;;;;;;;;;;;;;;;;;5103444;28;19919;-77
2023/11/02 14:54:39;;;;;;;;;;;;;;;;;;5086384;28;19920;-79
2023/11/02 14:57:20;;;;;;;;;;;;;;;;;;5101690;28;19920;-80
2023/11/02 14:59:47;;;;;;;;;;;;;;;;;;5099149;28;19977;-79
2023/11/02 15:02:16;;;;;;;;;;;;;;;;;;5101939;28;19920;-80
2023/11/02 15:04:44;;;;;;;;;;;;;;;;;;5105420;28;20597;-79
2023/11/02 15:07:13;;;;;;;;;;;;;;;;;;5100420;28;19955;-79
2023/11/02 15:09:40;;;;;;;;;;;;;;;;;;5106431;28;19945;-79